Time;durP1;ratioP1;P1;durP2;ratioP2;P2;SDS_P1;SDS_P2;PMS_P1;PMS_P2;Temp;Humidity;BMP_temperature;BMP_pressure;BME280_temperature;BME280_humidity;BME280_pressure;Samples;Min_cycle;Max_cycle;Signal;HPM_P1;HPM_P2
2022/08/04 00:00:11;;;;;;;6.60;4.05;;;;;;;22.15;nan;-24432.41;5029863;28;20179;-69
2022/08/04 00:03:01;;;;;;;7.40;3.95;;;;;;;22.22;nan;-24434.34;5031233;28;20201;-69
2022/08/04 00:05:40;;;;;;;6.75;3.85;;;;;;;22.16;nan;-24432.69;5030266;28;20211;-68
2022/08/04 00:08:15;;;;;;;7.78;3.92;;;;;;;22.10;nan;-24430.88;5031458;28;20399;-68
2022/08/04 00:10:48;;;;;;;7.18;3.92;;;;;;;22.06;nan;-24429.78;5031644;28;20163;-69
2022/08/04 00:13:17;;;;;;;8.25;4.00;;;;;;;21.86;nan;-24424.38;5031598;28;20219;-69
2022/08/04 00:15:44;;;;;;;7.20;4.22;;;;;;;21.82;nan;-24423.25;5031750;28;20170;-69
2022/08/04 00:18:14;;;;;;;6.32;4.20;;;;;;;21.59;nan;-24417.03;5031795;28;20639;-69
2022/08/04 00:20:41;;;;;;;5.15;3.67;;;;;;;21.77;nan;-24421.88;5031429;28;20542;-69
2022/08/04 00:23:08;;;;;;;7.15;4.00;;;;;;;21.55;nan;-24416.06;5031260;28;20175;-69
2022/08/04 00:25:37;;;;;;;5.80;4.07;;;;;;;21.17;nan;-24405.38;5030846;28;20194;-69
2022/08/04 00:28:03;;;;;;;5.85;4.05;;;;;;;21.35;nan;-24410.38;5031396;28;20657;-70
2022/08/04 00:30:29;;;;;;;5.43;3.80;;;;;;;21.18;nan;-24405.66;5031407;28;20171;-69
2022/08/04 00:32:56;;;;;;;5.95;3.58;;;;;;;21.25;nan;-24407.59;5031433;28;20580;-70
2022/08/04 00:35:22;;;;;;;6.22;3.90;;;;;;;21.35;nan;-24410.38;5028274;28;20219;-69
2022/08/04 00:37:49;;;;;;;6.10;3.78;;;;;;;21.56;nan;-24416.34;5031015;28;20234;-69
2022/08/04 00:40:32;;;;;;;6.38;3.78;;;;;;;21.57;nan;-24416.47;5030168;28;20179;-69
2022/08/04 00:43:28;;;;;;;6.00;4.05;;;;;;;21.47;nan;-24413.69;5027063;28;20172;-68
2022/08/04 00:46:23;;;;;;;7.60;4.30;;;;;;;21.40;nan;-24411.75;5030849;28;20237;-69
2022/08/04 00:49:13;;;;;;;6.82;4.22;;;;;;;21.43;nan;-24412.59;5031030;28;20209;-70
2022/08/04 00:52:26;;;;;;;6.32;4.03;;;;;;;21.44;nan;-24412.88;5031114;28;20603;-69
2022/08/04 00:54:57;;;;;;;5.55;4.07;;;;;;;21.37;nan;-24411.06;4965006;28;20677;-69
2022/08/04 00:57:41;;;;;;;7.88;3.97;;;;;;;21.31;nan;-24409.28;4969103;28;20213;-69
2022/08/04 01:00:13;;;;;;;6.72;4.22;;;;;;;21.31;nan;-24409.28;5014123;28;20265;-69
2022/08/04 01:02:49;;;;;;;6.80;4.03;;;;;;;21.10;nan;-24403.72;5034652;28;20179;-69
2022/08/04 01:05:17;;;;;;;7.07;4.03;;;;;;;21.21;nan;-24406.63;5034784;28;20221;-69
2022/08/04 01:08:07;;;;;;;6.95;4.20;;;;;;;21.00;nan;-24400.94;5033802;28;20183;-69
2022/08/04 01:11:02;;;;;;;6.97;4.75;;;;;;;21.02;nan;-24401.34;5034866;28;20167;-68
2022/08/04 01:13:33;;;;;;;6.47;4.20;;;;;;;20.89;nan;-24397.75;5032901;28;20223;-69
2022/08/04 01:16:04;;;;;;;7.20;4.75;;;;;;;20.85;nan;-24396.66;5034451;28;20194;-68
2022/08/04 01:18:38;;;;;;;7.95;4.70;;;;;;;20.80;nan;-24395.25;5034730;28;20171;-68
2022/08/04 01:21:29;;;;;;;8.07;4.80;;;;;;;20.75;nan;-24393.88;5034907;28;20170;-69
2022/08/04 01:24:13;;;;;;;6.25;4.13;;;;;;;20.73;nan;-24393.44;5027029;28;20187;-69
2022/08/04 01:26:41;;;;;;;7.28;4.47;;;;;;;20.68;nan;-24392.19;5034586;28;20171;-69
2022/08/04 01:29:09;;;;;;;6.75;4.38;;;;;;;20.45;nan;-24385.69;5034596;28;20171;-70
2022/08/04 01:31:59;;;;;;;6.07;4.38;;;;;;;20.31;nan;-24381.78;5034237;28;20167;-69
2022/08/04 01:34:28;;;;;;;7.32;4.32;;;;;;;20.50;nan;-24387.06;5049810;28;20665;-69
2022/08/04 01:37:01;;;;;;;7.20;4.45;;;;;;;20.38;nan;-24383.88;4363408;28;20873;-70
2022/08/04 01:39:40;;;;;;;9.98;4.55;;;;;;;20.16;nan;-24377.75;4278892;28;20925;-69
2022/08/04 01:42:06;;;;;;;7.05;4.72;;;;;;;20.23;nan;-24379.72;5034345;28;20159;-69
2022/08/04 01:44:35;;;;;;;8.02;4.32;;;;;;;20.52;nan;-24387.63;5033811;28;20560;-68
2022/08/04 01:47:02;;;;;;;7.57;4.38;;;;;;;20.22;nan;-24379.44;5034195;28;20175;-69
2022/08/04 01:49:31;;;;;;;5.53;4.00;;;;;;;20.42;nan;-24384.84;5034289;28;20170;-68
2022/08/04 01:51:57;;;;;;;6.95;4.32;;;;;;;20.27;nan;-24380.97;5032640;28;20168;-69
2022/08/04 01:54:24;;;;;;;6.28;4.28;;;;;;;20.31;nan;-24381.94;5033799;28;20233;-68
2022/08/04 01:56:50;;;;;;;6.95;4.65;;;;;;;20.35;nan;-24383.03;5033952;28;20232;-69
2022/08/04 01:59:18;;;;;;;7.55;5.03;;;;;;;20.40;nan;-24384.44;5033617;28;20171;-69
2022/08/04 02:01:44;;;;;;;7.63;4.65;;;;;;;20.30;nan;-24381.66;5034236;28;20592;-69
2022/08/04 02:04:18;;;;;;;7.03;4.35;;;;;;;20.39;nan;-24384.03;5033495;28;20190;-68
2022/08/04 02:06:52;;;;;;;7.30;4.57;;;;;;;20.49;nan;-24386.94;5034158;28;20159;-69
2022/08/04 02:09:52;;;;;;;6.65;4.63;;;;;;;20.46;nan;-24385.97;5033880;28;20533;-69
2022/08/04 02:12:26;;;;;;;7.88;4.95;;;;;;;20.44;nan;-24385.41;5033383;28;20164;-70
2022/08/04 02:15:25;;;;;;;6.53;4.28;;;;;;;20.36;nan;-24383.19;5033747;28;20240;-68
2022/08/04 02:17:50;;;;;;;6.78;4.03;;;;;;;20.41;nan;-24384.56;5033350;28;20598;-69
2022/08/04 02:20:29;;;;;;;6.50;4.00;;;;;;;20.23;nan;-24379.72;5033362;28;20601;-69
2022/08/04 02:23:00;;;;;;;5.68;3.78;;;;;;;20.46;nan;-24386.09;5033991;28;20173;-69
2022/08/04 02:25:27;;;;;;;5.63;3.67;;;;;;;20.13;nan;-24377.06;5033359;28;20205;-69
2022/08/04 02:28:21;;;;;;;6.22;3.80;;;;;;;20.39;nan;-24384.03;5033351;28;20643;-69
2022/08/04 02:31:19;;;;;;;7.07;4.50;;;;;;;20.38;nan;-24383.88;5033802;28;20258;-69
2022/08/04 02:34:10;;;;;;;8.25;4.25;;;;;;;20.38;nan;-24383.75;5033162;28;20258;-69
2022/08/04 02:36:40;;;;;;;4.68;3.20;;;;;;;20.47;nan;-24386.38;5028994;28;20198;-69
2022/08/04 02:39:08;;;;;;;6.22;3.85;;;;;;;20.50;nan;-24387.22;5033147;28;20638;-70
2022/08/04 02:41:34;;;;;;;5.55;3.72;;;;;;;20.72;nan;-24393.19;5033438;28;20171;-70
2022/08/04 02:44:04;;;;;;;6.10;3.70;;;;;;;20.21;nan;-24379.28;5033129;28;20289;-69
2022/08/04 02:46:32;;;;;;;7.65;4.47;;;;;;;20.24;nan;-24380.13;5033323;28;20175;-69
2022/08/04 02:49:01;;;;;;;7.57;4.40;;;;;;;19.79;nan;-24367.75;5031655;28;20259;-69
2022/08/04 02:51:32;;;;;;;6.97;4.00;;;;;;;19.74;nan;-24366.22;5033116;28;20606;-69
2022/08/04 02:53:59;;;;;;;7.00;4.28;;;;;;;19.83;nan;-24368.88;5032731;28;20199;-69
2022/08/04 02:56:27;;;;;;;6.70;4.47;;;;;;;19.67;nan;-24364.44;5031173;28;20233;-69
2022/08/04 02:58:58;;;;;;;8.80;4.82;;;;;;;19.67;nan;-24364.28;5031123;28;20549;-69
2022/08/04 03:01:24;;;;;;;8.35;4.85;;;;;;;19.93;nan;-24371.50;5032557;28;20249;-69
2022/08/04 03:04:01;;;;;;;7.78;4.28;;;;;;;19.99;nan;-24373.03;5047209;28;20631;-69
2022/08/04 03:07:13;;;;;;;7.75;4.97;;;;;;;19.65;nan;-24363.88;5032596;28;20233;-69
2022/08/04 03:10:16;;;;;;;8.43;5.10;;;;;;;19.96;nan;-24372.22;5011439;28;20681;-69
2022/08/04 03:12:56;;;;;;;7.22;4.07;;;;;;;19.88;nan;-24370.13;5032308;28;20228;-69
2022/08/04 03:15:59;;;;;;;8.15;4.88;;;;;;;19.94;nan;-24371.78;5032679;28;20167;-71
2022/08/04 03:18:55;;;;;;;5.60;4.18;;;;;;;19.97;nan;-24372.50;5032584;28;20175;-68
2022/08/04 03:21:51;;;;;;;6.97;4.47;;;;;;;20.06;nan;-24375.00;5032599;28;20171;-68
2022/08/04 03:24:42;;;;;;;6.10;3.90;;;;;;;20.17;nan;-24378.03;5032355;28;20205;-69
2022/08/04 03:27:44;;;;;;;6.20;3.90;;;;;;;20.23;nan;-24379.84;5032599;28;20171;-69
2022/08/04 03:30:25;;;;;;;6.65;4.28;;;;;;;20.57;nan;-24389.00;5032167;28;20186;-68
2022/08/04 03:33:12;;;;;;;5.85;3.97;;;;;;;20.87;nan;-24397.19;5032224;28;20635;-68
2022/08/04 03:35:55;;;;;;;9.65;4.80;;;;;;;21.06;nan;-24402.59;5032031;28;20171;-69
2022/08/04 03:38:39;;;;;;;6.78;4.18;;;;;;;21.44;nan;-24413.00;5032076;28;20175;-68
2022/08/04 03:41:25;;;;;;;7.93;3.95;;;;;;;21.92;nan;-24426.16;5030994;28;20648;-69
2022/08/04 03:44:01;;;;;;;6.28;3.80;;;;;;;22.78;nan;-24449.56;5031923;28;20167;-69
2022/08/04 03:46:35;;;;;;;6.22;4.20;;;;;;;23.52;nan;-24469.72;5031989;28;20177;-70
2022/08/04 03:49:34;;;;;;;6.65;3.78;;;;;;;23.98;nan;-24482.28;5031781;28;20167;-69
2022/08/04 03:55:45;;;;;;;5.00;3.60;;;;;;;25.92;nan;-24535.19;5031506;28;20204;-68
2022/08/04 03:58:25;;;;;;;7.78;3.97;;;;;;;26.69;nan;-24556.06;5031214;28;20171;-69
2022/08/04 04:01:04;;;;;;;5.93;3.95;;;;;;;27.31;nan;-24572.78;5031860;28;20289;-70
2022/08/04 04:03:41;;;;;;;6.15;4.03;;;;;;;27.89;nan;-24588.69;5031776;28;20190;-69
2022/08/04 04:06:25;;;;;;;8.55;4.43;;;;;;;28.33;nan;-24600.47;5030859;28;20190;-69
2022/08/04 04:09:10;;;;;;;9.45;4.78;;;;;;;28.63;nan;-24608.66;5031331;28;20647;-69
2022/08/04 04:11:36;;;;;;;6.43;4.38;;;;;;;28.85;nan;-24614.69;4999377;28;20600;-69
2022/08/04 04:14:04;;;;;;;6.47;4.13;;;;;;;28.64;nan;-24608.81;5031106;28;20302;-69
2022/08/04 04:16:42;;;;;;;5.63;3.95;;;;;;;28.53;nan;-24605.94;5031190;28;20246;-66
2022/08/04 04:19:28;;;;;;;5.38;3.83;;;;;;;27.83;nan;-24586.91;5031346;28;20175;-68
2022/08/04 04:22:09;;;;;;;6.78;4.32;;;;;;;27.83;nan;-24587.03;5030988;28;20225;-67
2022/08/04 04:24:53;;;;;;;9.60;4.28;;;;;;;27.97;nan;-24590.88;5031260;28;20195;-67
2022/08/04 04:27:22;;;;;;;7.38;4.70;;;;;;;27.68;nan;-24582.94;5030949;28;20194;-67
2022/08/04 04:30:07;;;;;;;6.22;4.43;;;;;;;27.07;nan;-24566.47;5031059;28;20175;-67
2022/08/04 04:32:50;;;;;;;8.80;4.35;;;;;;;27.51;nan;-24578.28;5030965;28;20171;-68
2022/08/04 04:35:35;;;;;;;5.93;3.95;;;;;;;28.44;nan;-24603.59;5034297;28;20178;-67
2022/08/04 04:38:24;;;;;;;6.63;4.22;;;;;;;28.85;nan;-24614.56;5035061;28;20619;-67
2022/08/04 04:41:05;;;;;;;7.30;4.60;;;;;;;29.63;nan;-24635.59;5032687;28;20194;-69
2022/08/04 04:44:10;;;;;;;5.57;3.90;;;;;;;29.62;nan;-24635.44;5034592;28;20542;-68
2022/08/04 04:47:00;;;;;;;4.63;3.47;;;;;;;28.07;nan;-24593.63;5035422;28;20201;-67
2022/08/04 04:49:50;;;;;;;5.32;4.07;;;;;;;29.00;nan;-24618.66;5035701;28;20202;-69
2022/08/04 04:52:30;;;;;;;5.68;4.03;;;;;;;29.01;nan;-24618.78;5033319;28;20183;-70
2022/08/04 04:55:04;;;;;;;6.25;3.95;;;;;;;28.83;nan;-24614.13;5035002;28;20512;-72
2022/08/04 04:57:35;;;;;;;6.70;4.38;;;;;;;28.31;nan;-24600.06;5034979;28;20159;-70
2022/08/04 05:00:09;;;;;;;5.43;4.10;;;;;;;28.28;nan;-24599.09;5034825;28;20175;-70
2022/08/04 05:02:59;;;;;;;7.28;3.70;;;;;;;28.35;nan;-24601.16;5034759;28;20166;-70
2022/08/04 05:05:59;;;;;;;6.32;4.32;;;;;;;27.68;nan;-24582.94;5033371;28;20196;-71
2022/08/04 05:08:42;;;;;;;4.93;3.63;;;;;;;27.01;nan;-24564.69;5034571;28;20159;-70
2022/08/04 05:11:44;;;;;;;7.47;3.63;;;;;;;26.28;nan;-24544.94;5034423;28;20184;-72
2022/08/04 05:14:16;;;;;;;5.55;3.83;;;;;;;26.03;nan;-24538.06;5034479;28;20266;-71
2022/08/04 05:16:50;;;;;;;6.65;4.22;;;;;;;26.19;nan;-24542.59;5034673;28;20228;-70
2022/08/04 05:19:25;;;;;;;4.32;3.45;;;;;;;26.37;nan;-24547.41;5034485;28;20178;-72
2022/08/04 05:22:15;;;;;;;6.57;3.85;;;;;;;25.95;nan;-24536.00;5034474;28;20160;-72
2022/08/04 05:24:45;;;;;;;6.00;4.22;;;;;;;25.59;nan;-24526.25;5034528;28;20706;-70
2022/08/04 05:27:16;;;;;;;6.70;4.10;;;;;;;;;;5034067;28;20242;-70
2022/08/04 05:30:03;;;;;;;6.38;4.15;;;;;;;24.91;nan;-24507.66;5034185;28;20170;-70
2022/08/04 05:32:45;;;;;;;6.15;4.03;;;;;;;24.58;nan;-24498.69;5033191;28;20234;-70
2022/08/04 05:35:20;;;;;;;6.60;3.95;;;;;;;24.05;nan;-24484.34;5033243;28;20208;-71
2022/08/04 05:37:48;;;;;;;5.07;3.83;;;;;;;24.11;nan;-24485.88;5033717;28;20546;-71
2022/08/04 05:40:17;;;;;;;6.63;4.25;;;;;;;23.70;nan;-24474.84;5033681;28;20222;-71
2022/08/04 05:42:43;;;;;;;5.68;4.00;;;;;;;23.48;nan;-24468.63;5033965;28;20527;-71
2022/08/04 05:45:11;;;;;;;8.13;4.63;;;;;;;23.42;nan;-24466.97;5047711;28;20199;-71
2022/08/04 05:47:37;;;;;;;6.75;4.38;;;;;;;23.71;nan;-24475.13;5030768;28;20245;-71
2022/08/04 05:50:05;;;;;;;8.95;4.30;;;;;;;23.70;nan;-24474.69;5033220;28;20171;-72
2022/08/04 05:52:32;;;;;;;6.75;4.40;;;;;;;23.59;nan;-24471.66;5033906;28;20182;-71
2022/08/04 05:55:00;;;;;;;10.25;5.05;;;;;;;23.82;nan;-24477.88;5033514;28;20214;-69
2022/08/04 05:57:27;;;;;;;5.95;4.50;;;;;;;23.72;nan;-24475.38;5033732;28;20179;-71
2022/08/04 05:59:54;;;;;;;7.18;4.13;;;;;;;23.77;nan;-24476.63;5033350;28;20174;-70
2022/08/04 06:02:22;;;;;;;6.43;4.15;;;;;;;24.52;nan;-24497.19;5033756;28;20202;-71
2022/08/04 06:04:49;;;;;;;8.35;3.75;;;;;;;24.74;nan;-24503.09;5033586;28;20183;-71
2022/08/04 06:07:15;;;;;;;7.95;4.43;;;;;;;24.59;nan;-24499.13;5031899;28;20210;-70
2022/08/04 06:09:41;;;;;;;5.80;3.60;;;;;;;25.05;nan;-24511.50;5032220;28;20203;-69
2022/08/04 06:12:18;;;;;;;4.55;3.38;;;;;;;25.06;nan;-24511.91;5034184;28;20238;-71
2022/08/04 06:14:48;;;;;;;5.50;3.75;;;;;;;25.49;nan;-24523.63;5014395;28;20235;-72
2022/08/04 06:17:27;;;;;;;4.97;3.50;;;;;;;25.71;nan;-24529.41;5019947;28;20270;-71
2022/08/04 06:19:54;;;;;;;5.05;3.55;;;;;;;26.13;nan;-24540.94;5033690;28;20163;-72
2022/08/04 06:22:22;;;;;;;6.60;3.88;;;;;;;26.26;nan;-24544.38;5033867;28;20182;-71
2022/08/04 06:24:51;;;;;;;6.63;3.67;;;;;;;25.87;nan;-24533.94;5033709;28;20191;-71
2022/08/04 06:27:17;;;;;;;6.80;3.97;;;;;;;26.07;nan;-24539.31;5034121;28;20651;-71
2022/08/04 06:29:44;;;;;;;4.85;3.50;;;;;;;26.62;nan;-24554.28;5033799;28;20159;-71
2022/08/04 06:34:56;;;;;;;4.38;3.47;;;;;;;26.92;nan;-24562.38;5033814;28;20178;-71
2022/08/04 06:37:22;;;;;;;5.03;3.72;;;;;;;26.78;nan;-24558.53;5034192;28;20167;-71
2022/08/04 06:39:49;;;;;;;6.13;3.92;;;;;;;27.31;nan;-24572.78;5033330;28;20221;-72
2022/08/04 06:42:17;;;;;;;5.22;3.88;;;;;;;27.40;nan;-24575.41;5033240;28;20225;-71
2022/08/04 06:44:47;;;;;;;5.30;3.70;;;;;;;27.05;nan;-24565.94;5033066;28;20191;-71
2022/08/04 06:47:17;;;;;;;5.40;3.63;;;;;;;27.25;nan;-24571.41;5033242;28;20159;-71
2022/08/04 06:49:46;;;;;;;4.18;3.22;;;;;;;27.36;nan;-24574.16;5033276;28;20229;-71
2022/08/04 06:52:16;;;;;;;5.18;3.45;;;;;;;27.61;nan;-24581.16;5033185;28;20171;-71
2022/08/04 06:54:46;;;;;;;4.97;3.55;;;;;;;27.50;nan;-24578.00;5033038;28;20656;-71
2022/08/04 06:57:14;;;;;;;4.28;3.33;;;;;;;27.66;nan;-24582.38;5032502;28;20160;-71
2022/08/04 07:00:12;;;;;;;5.50;3.40;;;;;;;27.47;nan;-24577.31;5032968;28;20179;-70
2022/08/04 07:02:50;;;;;;;4.68;3.33;;;;;;;27.12;nan;-24567.84;5031446;28;20186;-71
2022/08/04 07:05:17;;;;;;;6.22;4.05;;;;;;;27.10;nan;-24567.31;5033416;28;20187;-70
2022/08/04 07:07:44;;;;;;;4.38;3.03;;;;;;;27.22;nan;-24570.59;5031714;28;20186;-72
2022/08/04 07:10:10;;;;;;;5.90;3.85;;;;;;;27.56;nan;-24579.78;5032841;28;20666;-71
2022/08/04 07:12:38;;;;;;;5.35;3.83;;;;;;;27.34;nan;-24573.75;5032655;28;20616;-71
2022/08/04 07:15:04;;;;;;;5.85;3.60;;;;;;;27.28;nan;-24572.09;5031603;28;20171;-70
2022/08/04 07:17:31;;;;;;;3.58;3.05;;;;;;;27.33;nan;-24573.34;5032627;28;20378;-71
2022/08/04 07:19:56;;;;;;;4.32;3.45;;;;;;;27.88;nan;-24588.41;5032653;28;20182;-72
2022/08/04 07:22:24;;;;;;;5.10;3.40;;;;;;;27.96;nan;-24590.47;5032478;28;20175;-71
2022/08/04 07:24:54;;;;;;;4.38;3.40;;;;;;;28.07;nan;-24593.63;5032364;28;20194;-72
2022/08/04 07:27:19;;;;;;;5.93;3.63;;;;;;;28.20;nan;-24597.03;5032643;28;20199;-72
2022/08/04 07:29:46;;;;;;;5.50;3.60;;;;;;;28.09;nan;-24594.16;5031184;28;20594;-71
2022/08/04 07:32:12;;;;;;;4.15;3.15;;;;;;;28.45;nan;-24603.75;5032516;28;20254;-71
2022/08/04 07:34:39;;;;;;;6.25;3.67;;;;;;;28.24;nan;-24598.00;5032114;28;20191;-71
2022/08/04 07:37:04;;;;;;;4.68;3.50;;;;;;;27.85;nan;-24587.59;5032648;28;20237;-71
2022/08/04 07:39:31;;;;;;;4.38;3.30;;;;;;;28.26;nan;-24598.53;5032089;28;20171;-71
2022/08/04 07:41:59;;;;;;;5.78;4.07;;;;;;;27.87;nan;-24588.00;5032677;28;20186;-71
2022/08/04 07:44:25;;;;;;;5.15;3.38;;;;;;;27.76;nan;-24585.13;5032273;28;20223;-71
2022/08/04 07:46:51;;;;;;;5.18;3.60;;;;;;;27.80;nan;-24586.22;5032123;28;20178;-71
2022/08/04 07:49:16;;;;;;;5.15;3.83;;;;;;;28.41;nan;-24602.66;5031883;28;20174;-71
2022/08/04 07:51:42;;;;;;;4.78;3.60;;;;;;;28.68;nan;-24610.03;5031054;28;20172;-71
2022/08/04 07:54:09;;;;;;;4.53;3.17;;;;;;;29.12;nan;-24621.94;5032540;28;20211;-70
2022/08/04 07:56:36;;;;;;;6.07;3.70;;;;;;;28.94;nan;-24617.16;5032428;28;20171;-71
2022/08/04 07:59:03;;;;;;;5.75;4.10;;;;;;;28.95;nan;-24617.41;5032085;28;20171;-71
2022/08/04 08:01:29;;;;;;;4.57;3.60;;;;;;;28.89;nan;-24615.78;5032411;28;20173;-71
2022/08/04 08:03:56;;;;;;;6.90;3.70;;;;;;;28.81;nan;-24613.47;5031887;28;20175;-71
2022/08/04 08:06:23;;;;;;;5.05;3.47;;;;;;;28.81;nan;-24613.59;5031939;28;20167;-70
2022/08/04 08:08:48;;;;;;;3.92;3.25;;;;;;;29.21;nan;-24624.38;5031495;28;20175;-68
2022/08/04 08:11:15;;;;;;;7.75;4.00;;;;;;;29.18;nan;-24623.44;5030500;28;20510;-70
2022/08/04 08:13:42;;;;;;;4.63;3.60;;;;;;;29.62;nan;-24635.31;5031475;28;20317;-71
2022/08/04 08:16:08;;;;;;;5.65;3.25;;;;;;;29.72;nan;-24638.19;5031670;28;20167;-70
2022/08/04 08:18:34;;;;;;;6.95;3.70;;;;;;;29.72;nan;-24638.19;5031433;28;20174;-70
2022/08/04 08:21:00;;;;;;;3.95;3.15;;;;;;;29.97;nan;-24644.72;5031714;28;20159;-69
2022/08/04 08:23:29;;;;;;;4.15;3.20;;;;;;;30.11;nan;-24648.69;5031330;28;20629;-68
2022/08/04 08:25:56;;;;;;;7.50;3.45;;;;;;;30.24;nan;-24652.22;5031403;28;20198;-69
2022/08/04 08:28:21;;;;;;;4.57;3.28;;;;;;;29.79;nan;-24639.94;5030562;28;20580;-69
2022/08/04 08:30:47;;;;;;;5.35;3.33;;;;;;;30.18;nan;-24650.44;5031587;28;20162;-69
2022/08/04 08:33:14;;;;;;;4.35;3.22;;;;;;;30.54;nan;-24660.25;5031133;28;20171;-69
2022/08/04 08:36:00;;;;;;;5.47;3.72;;;;;;;30.69;nan;-24664.22;5031453;28;20201;-69
2022/08/04 08:38:48;;;;;;;3.88;3.00;;;;;;;31.06;nan;-24674.28;5031700;28;20177;-69
2022/08/04 08:41:39;;;;;;;4.90;3.55;;;;;;;31.01;nan;-24672.94;5031282;28;20248;-69
2022/08/04 08:44:32;;;;;;;4.57;3.17;;;;;;;31.24;nan;-24678.91;5031936;28;20178;-70
2022/08/04 08:47:22;;;;;;;3.47;2.72;;;;;;;31.44;nan;-24684.50;5029739;28;20545;-68
2022/08/04 08:50:28;;;;;;;3.92;2.97;;;;;;;31.51;nan;-24686.41;5030972;28;20175;-70
2022/08/04 08:53:31;;;;;;;3.10;2.72;;;;;;;31.54;nan;-24687.22;5031881;28;20261;-69
2022/08/04 08:56:27;;;;;;;2.38;2.10;;;;;;;31.14;nan;-24676.34;5031278;28;20183;-69
2022/08/04 08:59:17;;;;;;;2.85;2.22;;;;;;;31.67;nan;-24690.47;5031980;28;20155;-69
2022/08/04 09:01:49;;;;;;;4.88;2.90;;;;;;;31.77;nan;-24693.31;5031283;28;20175;-69
2022/08/04 09:04:54;;;;;;;4.22;2.97;;;;;;;31.73;nan;-24692.25;5031134;28;20666;-69
2022/08/04 09:07:30;;;;;;;3.33;2.67;;;;;;;32.04;nan;-24700.53;5031534;28;20162;-69
2022/08/04 09:09:58;;;;;;;3.78;2.70;;;;;;;32.06;nan;-24701.06;5029803;28;20269;-69
2022/08/04 09:12:38;;;;;;;3.30;2.50;;;;;;;31.77;nan;-24693.31;5029675;28;20206;-69
2022/08/04 09:15:28;;;;;;;3.90;2.53;;;;;;;32.00;nan;-24699.44;5031025;28;20626;-69
2022/08/04 09:18:08;;;;;;;3.85;2.90;;;;;;;31.90;nan;-24696.88;5030891;28;20536;-68
2022/08/04 09:20:42;;;;;;;3.63;2.42;;;;;;;31.88;nan;-24696.19;5032536;28;20218;-69
2022/08/04 09:23:32;;;;;;;3.03;2.50;;;;;;;31.98;nan;-24698.91;5034332;28;20186;-69
2022/08/04 09:26:07;;;;;;;3.35;2.45;;;;;;;31.89;nan;-24696.47;5034127;28;20197;-70
2022/08/04 09:29:40;;;;;;;3.38;2.50;;;;;;;31.69;nan;-24691.16;5034585;28;20154;-70
2022/08/04 09:32:21;;;;;;;4.78;3.10;;;;;;;32.04;nan;-24700.41;4960893;28;20195;-70
2022/08/04 09:34:56;;;;;;;3.50;2.78;;;;;;;31.88;nan;-24696.31;5033633;28;20202;-70
2022/08/04 09:37:39;;;;;;;3.22;2.50;;;;;;;32.47;nan;-24712.06;5034236;28;20174;-70
2022/08/04 09:40:24;;;;;;;5.38;2.50;;;;;;;32.40;nan;-24710.31;5033038;28;20175;-70
2022/08/04 09:43:02;;;;;;;4.63;2.88;;;;;;;32.64;nan;-24716.69;5032081;28;20183;-70
2022/08/04 09:46:13;;;;;;;3.60;2.45;;;;;;;32.90;nan;-24723.59;5032761;28;20230;-70
2022/08/04 09:48:47;;;;;;;3.85;2.70;;;;;;;32.79;nan;-24720.75;5000538;28;20721;-70
2022/08/04 09:51:30;;;;;;;3.40;2.53;;;;;;;32.85;nan;-24722.25;5033955;28;20191;-70
2022/08/04 09:54:11;;;;;;;3.45;2.50;;;;;;;32.72;nan;-24718.84;5029854;28;20277;-69
2022/08/04 09:57:14;;;;;;;3.22;2.30;;;;;;;33.02;nan;-24726.84;5034372;28;20659;-70
2022/08/04 10:00:01;;;;;;;3.28;2.80;;;;;;;33.18;nan;-24731.06;5034213;28;20163;-70
2022/08/04 10:02:33;;;;;;;3.80;2.55;;;;;;;32.99;nan;-24726.03;5034015;28;20265;-69
2022/08/04 10:05:02;;;;;;;3.60;2.75;;;;;;;32.76;nan;-24719.81;5034184;28;20194;-70
2022/08/04 10:07:41;;;;;;;4.78;2.60;;;;;;;32.61;nan;-24715.88;5033814;28;20297;-70
2022/08/04 10:10:18;;;;;;;11.50;3.92;;;;;;;32.43;nan;-24711.13;5034342;28;20212;-70
2022/08/04 10:12:55;;;;;;;4.57;3.08;;;;;;;32.55;nan;-24714.09;5033538;28;20171;-70
2022/08/04 10:15:39;;;;;;;3.55;2.65;;;;;;;32.26;nan;-24706.38;5033832;28;20221;-70
2022/08/04 10:18:16;;;;;;;3.17;2.47;;;;;;;32.48;nan;-24712.19;5034013;28;20177;-70
2022/08/04 10:20:49;;;;;;;3.78;2.40;;;;;;;32.33;nan;-24708.41;5033762;28;20167;-71
2022/08/04 10:23:33;;;;;;;3.72;2.90;;;;;;;32.41;nan;-24710.44;5033994;28;20179;-71
2022/08/04 10:26:35;;;;;;;4.47;2.42;;;;;;;32.09;nan;-24701.75;5034261;28;20194;-70
2022/08/04 10:29:29;;;;;;;2.60;2.15;;;;;;;31.75;nan;-24692.78;5033748;28;20209;-71
2022/08/04 10:32:51;;;;;;;2.78;2.38;;;;;;;31.66;nan;-24690.22;5032917;28;20174;-70
2022/08/04 10:35:19;;;;;;;3.70;2.65;;;;;;;31.44;nan;-24684.50;4956380;28;20181;-71
2022/08/04 10:38:12;;;;;;;3.28;2.35;;;;;;;31.92;nan;-24697.28;5022816;28;20183;-70
2022/08/04 10:40:56;;;;;;;3.22;2.55;;;;;;;31.84;nan;-24695.22;5032226;28;20614;-71
2022/08/04 10:43:34;;;;;;;3.03;2.40;;;;;;;32.64;nan;-24716.69;5033666;28;20178;-72
2022/08/04 10:46:22;;;;;;;3.60;2.85;;;;;;;32.75;nan;-24719.66;5032982;28;20554;-71
2022/08/04 10:48:56;;;;;;;2.70;2.15;;;;;;;33.27;nan;-24733.63;5032314;28;20260;-69
2022/08/04 10:51:43;;;;;;;2.95;2.22;;;;;;;33.45;nan;-24738.38;5032556;28;20171;-68
2022/08/04 10:54:49;;;;;;;2.92;2.28;;;;;;;33.37;nan;-24736.19;5011631;28;20211;-68
2022/08/04 10:57:40;;;;;;;4.63;2.85;;;;;;;33.32;nan;-24734.72;5011742;28;20185;-71
2022/08/04 11:00:15;;;;;;;3.70;2.60;;;;;;;32.98;nan;-24725.78;5013109;28;20564;-68
2022/08/04 11:02:57;;;;;;;2.83;2.10;;;;;;;32.68;nan;-24717.63;5012909;28;20246;-68
2022/08/04 11:05:43;;;;;;;6.10;3.70;;;;;;;33.01;nan;-24726.59;5012828;28;20191;-67
2022/08/04 11:08:14;;;;;;;4.00;2.53;;;;;;;32.57;nan;-24714.78;5012885;28;20170;-68
2022/08/04 11:10:46;;;;;;;3.67;2.70;;;;;;;32.61;nan;-24715.72;5012860;28;20623;-70
2022/08/04 11:13:15;;;;;;;2.95;2.40;;;;;;;32.66;nan;-24717.09;5012737;28;20314;-69
2022/08/04 11:15:48;;;;;;;2.88;2.35;;;;;;;33.13;nan;-24729.84;5012729;28;20221;-71
2022/08/04 11:18:22;;;;;;;5.28;2.13;;;;;;;32.84;nan;-24721.97;5012927;28;20680;-68
2022/08/04 11:20:58;;;;;;;3.80;2.65;;;;;;;32.57;nan;-24714.78;5013029;28;20608;-70
2022/08/04 11:23:31;;;;;;;3.35;2.40;;;;;;;32.97;nan;-24725.50;5012822;28;20317;-69
2022/08/04 11:26:06;;;;;;;3.28;2.40;;;;;;;33.11;nan;-24729.28;5012475;28;20198;-69
2022/08/04 11:28:45;;;;;;;3.00;2.25;;;;;;;33.24;nan;-24732.81;5012652;28;20171;-72
2022/08/04 11:31:17;;;;;;;3.20;2.40;;;;;;;33.38;nan;-24736.34;5012602;28;20190;-67
2022/08/04 11:34:02;;;;;;;3.67;2.70;;;;;;;33.06;nan;-24727.94;5012240;28;20171;-70
2022/08/04 11:37:01;;;;;;;3.67;2.70;;;;;;;33.27;nan;-24733.63;5012249;28;20160;-70
2022/08/04 11:39:40;;;;;;;2.45;2.13;;;;;;;33.10;nan;-24728.88;5012828;28;20236;-70
2022/08/04 11:42:14;;;;;;;2.97;2.30;;;;;;;33.09;nan;-24728.75;5012578;28;20242;-70
2022/08/04 11:44:46;;;;;;;3.10;2.33;;;;;;;33.07;nan;-24728.22;5011823;28;20312;-70
2022/08/04 11:47:31;;;;;;;2.88;2.45;;;;;;;33.53;nan;-24740.41;5012312;28;20180;-71
2022/08/04 11:50:19;;;;;;;3.40;2.53;;;;;;;33.99;nan;-24752.72;5011034;28;20194;-68
2022/08/04 11:52:46;;;;;;;2.58;2.10;;;;;;;33.87;nan;-24749.59;5012326;28;20631;-71
2022/08/04 11:55:15;;;;;;;3.28;2.20;;;;;;;34.00;nan;-24752.97;5012221;28;20209;-70
2022/08/04 11:57:41;;;;;;;3.55;2.40;;;;;;;33.81;nan;-24747.84;5012877;28;20310;-69
2022/08/04 12:00:11;;;;;;;3.17;2.30;;;;;;;34.06;nan;-24754.75;5012381;28;20626;-72
2022/08/04 12:03:05;;;;;;;2.63;1.92;;;;;;;34.27;nan;-24760.28;5012522;28;20168;-70
2022/08/04 12:05:50;;;;;;;2.55;2.20;;;;;;;34.62;nan;-24769.47;5012041;28;20195;-69
2022/08/04 12:08:37;;;;;;;2.97;2.10;;;;;;;34.30;nan;-24760.97;5012384;28;20218;-72
2022/08/04 12:11:26;;;;;;;2.67;2.05;;;;;;;33.62;nan;-24742.84;5012063;28;20626;-70
2022/08/04 12:13:54;;;;;;;2.60;2.30;;;;;;;33.92;nan;-24750.81;5012271;28;20230;-69
2022/08/04 12:16:34;;;;;;;2.42;2.10;;;;;;;34.01;nan;-24753.25;5012413;28;20650;-71
2022/08/04 12:19:04;;;;;;;3.10;2.42;;;;;;;33.95;nan;-24751.63;5012087;28;20183;-70
2022/08/04 12:21:53;;;;;;;3.42;2.28;;;;;;;33.23;nan;-24732.41;5012097;28;20178;-69
2022/08/04 12:24:30;;;;;;;2.95;2.55;;;;;;;32.58;nan;-24714.91;5011652;28;20324;-69
2022/08/04 12:26:58;;;;;;;3.90;2.45;;;;;;;33.05;nan;-24727.53;5012070;28;20163;-66
2022/08/04 12:29:29;;;;;;;4.57;2.80;;;;;;;32.88;nan;-24723.19;5011994;28;20170;-65
2022/08/04 12:32:09;;;;;;;3.22;2.50;;;;;;;32.74;nan;-24719.25;5012430;28;20173;-67
2022/08/04 12:34:41;;;;;;;3.05;2.50;;;;;;;32.56;nan;-24714.50;5011882;28;20170;-66